sensor_id;sensor_type;location;lat;lon;timestamp;P1;durP1;ratioP1;P2;durP2;ratioP2
38994;SDS011;24769;18.712;99.000;2023-04-24T00:02:24;58.25;;;48.75;;
38994;SDS011;24769;18.712;99.000;2023-04-24T00:04:51;62.00;;;50.75;;
38994;SDS011;24769;18.712;99.000;2023-04-24T00:07:18;59.50;;;49.75;;
38994;SDS011;24769;18.712;99.000;2023-04-24T00:09:45;63.75;;;52.25;;
38994;SDS011;24769;18.712;99.000;2023-04-24T00:12:12;63.00;;;51.75;;
38994;SDS011;24769;18.712;99.000;2023-04-24T00:14:38;62.50;;;51.75;;
38994;SDS011;24769;18.712;99.000;2023-04-24T00:17:05;57.50;;;48.50;;
38994;SDS011;24769;18.712;99.000;2023-04-24T00:19:32;58.75;;;48.50;;
38994;SDS011;24769;18.712;99.000;2023-04-24T00:21:58;61.75;;;51.00;;
38994;SDS011;24769;18.712;99.000;2023-04-24T00:24:25;59.00;;;48.50;;
38994;SDS011;24769;18.712;99.000;2023-04-24T00:26:51;60.75;;;50.50;;
38994;SDS011;24769;18.712;99.000;2023-04-24T00:29:18;62.50;;;51.50;;
38994;SDS011;24769;18.712;99.000;2023-04-24T00:31:44;62.75;;;52.00;;
38994;SDS011;24769;18.712;99.000;2023-04-24T00:34:11;66.25;;;54.00;;
38994;SDS011;24769;18.712;99.000;2023-04-24T00:36:38;63.75;;;52.50;;
38994;SDS011;24769;18.712;99.000;2023-04-24T00:39:04;63.25;;;52.00;;
38994;SDS011;24769;18.712;99.000;2023-04-24T00:41:33;68.00;;;56.25;;
38994;SDS011;24769;18.712;99.000;2023-04-24T00:44:00;65.00;;;54.00;;
38994;SDS011;24769;18.712;99.000;2023-04-24T00:46:27;66.75;;;55.00;;
38994;SDS011;24769;18.712;99.000;2023-04-24T00:48:55;76.50;;;71.00;;
38994;SDS011;24769;18.712;99.000;2023-04-24T00:51:22;65.50;;;54.25;;
38994;SDS011;24769;18.712;99.000;2023-04-24T00:53:49;70.00;;;59.00;;
38994;SDS011;24769;18.712;99.000;2023-04-24T00:56:17;62.25;;;51.25;;
38994;SDS011;24769;18.712;99.000;2023-04-24T00:58:45;61.75;;;50.75;;
38994;SDS011;24769;18.712;99.000;2023-04-24T01:01:12;61.00;;;50.50;;
38994;SDS011;24769;18.712;99.000;2023-04-24T01:03:39;61.00;;;49.75;;
38994;SDS011;24769;18.712;99.000;2023-04-24T01:06:06;63.25;;;52.25;;
38994;SDS011;24769;18.712;99.000;2023-04-24T01:08:33;59.75;;;49.25;;
38994;SDS011;24769;18.712;99.000;2023-04-24T01:11:01;59.00;;;49.00;;
38994;SDS011;24769;18.712;99.000;2023-04-24T01:13:31;62.00;;;50.75;;
38994;SDS011;24769;18.712;99.000;2023-04-24T01:15:58;60.50;;;49.75;;
38994;SDS011;24769;18.712;99.000;2023-04-24T01:18:26;58.00;;;48.20;;
38994;SDS011;24769;18.712;99.000;2023-04-24T01:20:54;58.80;;;48.80;;
38994;SDS011;24769;18.712;99.000;2023-04-24T01:23:23;55.60;;;46.60;;
38994;SDS011;24769;18.712;99.000;2023-04-24T01:25:50;59.20;;;48.60;;
38994;SDS011;24769;18.712;99.000;2023-04-24T01:28:17;60.80;;;50.20;;
38994;SDS011;24769;18.712;99.000;2023-04-24T01:30:44;57.20;;;48.00;;
38994;SDS011;24769;18.712;99.000;2023-04-24T01:33:11;57.80;;;48.40;;
38994;SDS011;24769;18.712;99.000;2023-04-24T01:35:38;60.80;;;50.60;;
38994;SDS011;24769;18.712;99.000;2023-04-24T01:38:05;58.60;;;48.80;;
38994;SDS011;24769;18.712;99.000;2023-04-24T01:40:32;58.20;;;48.40;;
38994;SDS011;24769;18.712;99.000;2023-04-24T01:42:59;60.40;;;50.00;;
38994;SDS011;24769;18.712;99.000;2023-04-24T01:45:25;51.00;;;43.40;;
38994;SDS011;24769;18.712;99.000;2023-04-24T01:47:52;60.00;;;49.60;;
38994;SDS011;24769;18.712;99.000;2023-04-24T01:50:18;61.20;;;50.60;;
38994;SDS011;24769;18.712;99.000;2023-04-24T01:52:45;57.00;;;47.60;;
38994;SDS011;24769;18.712;99.000;2023-04-24T01:55:11;62.00;;;51.20;;
38994;SDS011;24769;18.712;99.000;2023-04-24T01:57:38;60.20;;;49.80;;
38994;SDS011;24769;18.712;99.000;2023-04-24T02:00:05;57.60;;;48.00;;
38994;SDS011;24769;18.712;99.000;2023-04-24T02:02:32;59.60;;;49.40;;
38994;SDS011;24769;18.712;99.000;2023-04-24T02:04:59;58.60;;;48.60;;
38994;SDS011;24769;18.712;99.000;2023-04-24T02:07:26;62.00;;;51.00;;
38994;SDS011;24769;18.712;99.000;2023-04-24T02:09:53;60.60;;;50.20;;
38994;SDS011;24769;18.712;99.000;2023-04-24T02:12:20;57.40;;;47.60;;
38994;SDS011;24769;18.712;99.000;2023-04-24T02:14:47;59.00;;;48.80;;
38994;SDS011;24769;18.712;99.000;2023-04-24T02:17:13;58.80;;;48.40;;
38994;SDS011;24769;18.712;99.000;2023-04-24T02:19:41;57.60;;;47.80;;
38994;SDS011;24769;18.712;99.000;2023-04-24T02:22:07;55.40;;;46.00;;
38994;SDS011;24769;18.712;99.000;2023-04-24T02:24:36;59.20;;;49.00;;
38994;SDS011;24769;18.712;99.000;2023-04-24T02:27:03;57.20;;;47.20;;
38994;SDS011;24769;18.712;99.000;2023-04-24T02:29:30;56.20;;;47.20;;
38994;SDS011;24769;18.712;99.000;2023-04-24T02:31:56;56.60;;;47.40;;
38994;SDS011;24769;18.712;99.000;2023-04-24T02:34:23;56.80;;;47.40;;
38994;SDS011;24769;18.712;99.000;2023-04-24T02:36:50;54.20;;;45.40;;
38994;SDS011;24769;18.712;99.000;2023-04-24T02:39:19;56.00;;;46.00;;
38994;SDS011;24769;18.712;99.000;2023-04-24T02:41:45;56.20;;;47.00;;
38994;SDS011;24769;18.712;99.000;2023-04-24T02:44:12;54.60;;;45.40;;
38994;SDS011;24769;18.712;99.000;2023-04-24T02:46:38;55.60;;;46.60;;
38994;SDS011;24769;18.712;99.000;2023-04-24T02:49:06;53.80;;;45.00;;
38994;SDS011;24769;18.712;99.000;2023-04-24T02:51:33;55.20;;;45.80;;
38994;SDS011;24769;18.712;99.000;2023-04-24T02:53:59;55.60;;;46.60;;
38994;SDS011;24769;18.712;99.000;2023-04-24T02:56:26;56.40;;;47.00;;
38994;SDS011;24769;18.712;99.000;2023-04-24T02:58:52;54.60;;;45.60;;
38994;SDS011;24769;18.712;99.000;2023-04-24T03:01:19;52.00;;;44.00;;
38994;SDS011;24769;18.712;99.000;2023-04-24T03:03:45;48.40;;;41.40;;
38994;SDS011;24769;18.712;99.000;2023-04-24T03:06:12;58.20;;;48.00;;
38994;SDS011;24769;18.712;99.000;2023-04-24T03:08:38;53.40;;;44.80;;
38994;SDS011;24769;18.712;99.000;2023-04-24T03:11:05;52.00;;;43.80;;
38994;SDS011;24769;18.712;99.000;2023-04-24T03:13:31;51.40;;;43.40;;
38994;SDS011;24769;18.712;99.000;2023-04-24T03:15:58;52.80;;;44.00;;
38994;SDS011;24769;18.712;99.000;2023-04-24T03:18:24;50.00;;;42.40;;
38994;SDS011;24769;18.712;99.000;2023-04-24T03:20:51;50.60;;;42.60;;
38994;SDS011;24769;18.712;99.000;2023-04-24T03:23:17;51.40;;;43.40;;
38994;SDS011;24769;18.712;99.000;2023-04-24T03:25:44;55.80;;;46.60;;
38994;SDS011;24769;18.712;99.000;2023-04-24T03:28:11;52.40;;;43.60;;
38994;SDS011;24769;18.712;99.000;2023-04-24T03:30:37;49.60;;;42.40;;
38994;SDS011;24769;18.712;99.000;2023-04-24T03:33:04;51.80;;;43.80;;
38994;SDS011;24769;18.712;99.000;2023-04-24T03:35:30;51.60;;;43.60;;
38994;SDS011;24769;18.712;99.000;2023-04-24T03:37:57;53.00;;;44.80;;
38994;SDS011;24769;18.712;99.000;2023-04-24T03:40:23;54.20;;;45.40;;
38994;SDS011;24769;18.712;99.000;2023-04-24T03:42:50;49.60;;;42.40;;
38994;SDS011;24769;18.712;99.000;2023-04-24T03:45:17;54.00;;;45.20;;
38994;SDS011;24769;18.712;99.000;2023-04-24T03:47:43;48.60;;;41.60;;
38994;SDS011;24769;18.712;99.000;2023-04-24T03:50:10;50.00;;;42.60;;
38994;SDS011;24769;18.712;99.000;2023-04-24T03:52:36;48.20;;;41.00;;
38994;SDS011;24769;18.712;99.000;2023-04-24T03:55:05;52.40;;;44.40;;
38994;SDS011;24769;18.712;99.000;2023-04-24T03:57:32;50.60;;;43.00;;
38994;SDS011;24769;18.712;99.000;2023-04-24T03:59:59;51.40;;;43.00;;
38994;SDS011;24769;18.712;99.000;2023-04-24T04:02:25;47.60;;;40.80;;
38994;SDS011;24769;18.712;99.000;2023-04-24T04:04:51;51.80;;;43.80;;
38994;SDS011;24769;18.712;99.000;2023-04-24T04:07:18;52.80;;;44.40;;
38994;SDS011;24769;18.712;99.000;2023-04-24T04:09:44;52.40;;;43.40;;
38994;SDS011;24769;18.712;99.000;2023-04-24T04:12:11;51.20;;;43.20;;
38994;SDS011;24769;18.712;99.000;2023-04-24T04:14:38;53.20;;;44.60;;
38994;SDS011;24769;18.712;99.000;2023-04-24T04:17:04;55.40;;;46.20;;
38994;SDS011;24769;18.712;99.000;2023-04-24T04:19:31;51.60;;;43.20;;
38994;SDS011;24769;18.712;99.000;2023-04-24T04:21:57;49.40;;;42.20;;
38994;SDS011;24769;18.712;99.000;2023-04-24T04:24:24;54.60;;;45.60;;
38994;SDS011;24769;18.712;99.000;2023-04-24T04:26:51;51.60;;;43.20;;
38994;SDS011;24769;18.712;99.000;2023-04-24T04:29:22;55.80;;;46.00;;
38994;SDS011;24769;18.712;99.000;2023-04-24T04:31:49;49.60;;;41.60;;
38994;SDS011;24769;18.712;99.000;2023-04-24T04:34:16;48.00;;;41.00;;
38994;SDS011;24769;18.712;99.000;2023-04-24T04:36:42;54.20;;;45.20;;
38994;SDS011;24769;18.712;99.000;2023-04-24T04:39:09;47.20;;;40.40;;
38994;SDS011;24769;18.712;99.000;2023-04-24T04:41:36;54.00;;;44.80;;
38994;SDS011;24769;18.712;99.000;2023-04-24T04:44:03;54.40;;;45.40;;
38994;SDS011;24769;18.712;99.000;2023-04-24T04:46:30;53.00;;;45.00;;
38994;SDS011;24769;18.712;99.000;2023-04-24T04:48:59;52.40;;;44.60;;
38994;SDS011;24769;18.712;99.000;2023-04-24T04:51:26;52.60;;;43.80;;
38994;SDS011;24769;18.712;99.000;2023-04-24T04:53:53;50.20;;;42.80;;
38994;SDS011;24769;18.712;99.000;2023-04-24T04:56:20;51.80;;;44.00;;
38994;SDS011;24769;18.712;99.000;2023-04-24T04:58:47;54.40;;;45.20;;
38994;SDS011;24769;18.712;99.000;2023-04-24T05:01:14;50.80;;;43.00;;
38994;SDS011;24769;18.712;99.000;2023-04-24T05:03:41;53.20;;;44.80;;
38994;SDS011;24769;18.712;99.000;2023-04-24T05:06:08;51.20;;;43.40;;
38994;SDS011;24769;18.712;99.000;2023-04-24T05:08:34;53.20;;;44.80;;
38994;SDS011;24769;18.712;99.000;2023-04-24T05:11:01;55.60;;;47.00;;
38994;SDS011;24769;18.712;99.000;2023-04-24T05:13:28;48.20;;;41.00;;
38994;SDS011;24769;18.712;99.000;2023-04-24T05:15:54;49.80;;;42.20;;
38994;SDS011;24769;18.712;99.000;2023-04-24T05:18:21;55.00;;;46.00;;
38994;SDS011;24769;18.712;99.000;2023-04-24T05:20:48;55.00;;;46.00;;
38994;SDS011;24769;18.712;99.000;2023-04-24T05:23:14;50.60;;;43.00;;
38994;SDS011;24769;18.712;99.000;2023-04-24T05:25:41;51.60;;;43.60;;
38994;SDS011;24769;18.712;99.000;2023-04-24T05:28:08;54.80;;;45.80;;
38994;SDS011;24769;18.712;99.000;2023-04-24T05:30:34;52.80;;;44.20;;
38994;SDS011;24769;18.712;99.000;2023-04-24T05:33:03;52.80;;;44.20;;
38994;SDS011;24769;18.712;99.000;2023-04-24T05:35:30;52.60;;;44.40;;
38994;SDS011;24769;18.712;99.000;2023-04-24T05:37:57;55.00;;;45.80;;
38994;SDS011;24769;18.712;99.000;2023-04-24T05:40:23;57.40;;;47.80;;
38994;SDS011;24769;18.712;99.000;2023-04-24T05:42:50;56.80;;;47.40;;
38994;SDS011;24769;18.712;99.000;2023-04-24T05:45:17;55.20;;;46.20;;
38994;SDS011;24769;18.712;99.000;2023-04-24T05:47:43;54.40;;;45.40;;
38994;SDS011;24769;18.712;99.000;2023-04-24T05:50:10;55.60;;;46.00;;
38994;SDS011;24769;18.712;99.000;2023-04-24T05:52:37;49.20;;;42.00;;
38994;SDS011;24769;18.712;99.000;2023-04-24T05:55:04;53.40;;;44.60;;
38994;SDS011;24769;18.712;99.000;2023-04-24T05:57:31;54.80;;;45.80;;
38994;SDS011;24769;18.712;99.000;2023-04-24T05:59:58;54.40;;;45.40;;
38994;SDS011;24769;18.712;99.000;2023-04-24T06:02:25;56.20;;;47.00;;
38994;SDS011;24769;18.712;99.000;2023-04-24T06:04:52;59.20;;;48.60;;
38994;SDS011;24769;18.712;99.000;2023-04-24T06:07:19;54.60;;;45.60;;
38994;SDS011;24769;18.712;99.000;2023-04-24T06:09:46;54.80;;;45.80;;
38994;SDS011;24769;18.712;99.000;2023-04-24T06:12:13;54.20;;;45.00;;
38994;SDS011;24769;18.712;99.000;2023-04-24T06:14:39;55.20;;;46.20;;
38994;SDS011;24769;18.712;99.000;2023-04-24T06:17:06;54.20;;;45.40;;
38994;SDS011;24769;18.712;99.000;2023-04-24T06:19:33;58.60;;;48.40;;
38994;SDS011;24769;18.712;99.000;2023-04-24T06:21:59;54.40;;;45.20;;
38994;SDS011;24769;18.712;99.000;2023-04-24T06:24:29;55.60;;;46.60;;
38994;SDS011;24769;18.712;99.000;2023-04-24T06:26:56;48.20;;;41.20;;
38994;SDS011;24769;18.712;99.000;2023-04-24T06:29:24;53.80;;;45.20;;
38994;SDS011;24769;18.712;99.000;2023-04-24T06:31:50;55.40;;;46.20;;
38994;SDS011;24769;18.712;99.000;2023-04-24T06:34:17;53.80;;;44.80;;
38994;SDS011;24769;18.712;99.000;2023-04-24T06:36:44;52.00;;;43.80;;
38994;SDS011;24769;18.712;99.000;2023-04-24T06:39:12;53.60;;;44.80;;
38994;SDS011;24769;18.712;99.000;2023-04-24T06:41:38;52.80;;;44.40;;
38994;SDS011;24769;18.712;99.000;2023-04-24T06:44:05;55.40;;;46.40;;
38994;SDS011;24769;18.712;99.000;2023-04-24T06:46:32;53.00;;;44.80;;
38994;SDS011;24769;18.712;99.000;2023-04-24T06:49:00;54.80;;;45.80;;
38994;SDS011;24769;18.712;99.000;2023-04-24T06:51:26;51.80;;;44.00;;
38994;SDS011;24769;18.712;99.000;2023-04-24T06:53:54;52.60;;;44.40;;
38994;SDS011;24769;18.712;99.000;2023-04-24T06:56:23;54.60;;;45.20;;
38994;SDS011;24769;18.712;99.000;2023-04-24T06:58:51;54.00;;;45.00;;
38994;SDS011;24769;18.712;99.000;2023-04-24T07:01:18;54.60;;;45.20;;
38994;SDS011;24769;18.712;99.000;2023-04-24T07:03:45;54.80;;;45.80;;
38994;SDS011;24769;18.712;99.000;2023-04-24T07:06:12;55.60;;;46.60;;
38994;SDS011;24769;18.712;99.000;2023-04-24T07:08:38;55.60;;;46.00;;
38994;SDS011;24769;18.712;99.000;2023-04-24T07:11:07;53.00;;;44.80;;
38994;SDS011;24769;18.712;99.000;2023-04-24T07:13:33;54.60;;;45.60;;
38994;SDS011;24769;18.712;99.000;2023-04-24T07:16:00;55.60;;;46.60;;
38994;SDS011;24769;18.712;99.000;2023-04-24T07:18:27;52.00;;;43.60;;
38994;SDS011;24769;18.712;99.000;2023-04-24T07:20:54;51.60;;;43.60;;
38994;SDS011;24769;18.712;99.000;2023-04-24T07:23:20;50.80;;;42.80;;
38994;SDS011;24769;18.712;99.000;2023-04-24T07:25:47;51.00;;;43.00;;
38994;SDS011;24769;18.712;99.000;2023-04-24T07:28:14;53.20;;;44.60;;
38994;SDS011;24769;18.712;99.000;2023-04-24T07:30:40;49.60;;;42.60;;
38994;SDS011;24769;18.712;99.000;2023-04-24T07:33:07;51.00;;;43.00;;
38994;SDS011;24769;18.712;99.000;2023-04-24T07:35:36;50.20;;;42.60;;
38994;SDS011;24769;18.712;99.000;2023-04-24T07:38:03;52.00;;;44.00;;
38994;SDS011;24769;18.712;99.000;2023-04-24T07:40:30;54.20;;;45.20;;
38994;SDS011;24769;18.712;99.000;2023-04-24T07:42:56;51.60;;;43.80;;
38994;SDS011;24769;18.712;99.000;2023-04-24T07:45:23;52.80;;;44.00;;
38994;SDS011;24769;18.712;99.000;2023-04-24T07:47:51;48.60;;;41.60;;
38994;SDS011;24769;18.712;99.000;2023-04-24T07:50:18;51.20;;;43.60;;
38994;SDS011;24769;18.712;99.000;2023-04-24T07:52:45;49.60;;;42.00;;
38994;SDS011;24769;18.712;99.000;2023-04-24T07:55:11;52.00;;;43.80;;
38994;SDS011;24769;18.712;99.000;2023-04-24T07:57:38;48.80;;;42.20;;
38994;SDS011;24769;18.712;99.000;2023-04-24T08:00:05;50.80;;;43.60;;
38994;SDS011;24769;18.712;99.000;2023-04-24T08:02:33;48.20;;;41.20;;
38994;SDS011;24769;18.712;99.000;2023-04-24T08:04:59;51.00;;;43.00;;
38994;SDS011;24769;18.712;99.000;2023-04-24T08:07:28;51.60;;;43.60;;
38994;SDS011;24769;18.712;99.000;2023-04-24T08:09:54;51.00;;;43.20;;
38994;SDS011;24769;18.712;99.000;2023-04-24T08:12:22;49.00;;;42.00;;
38994;SDS011;24769;18.712;99.000;2023-04-24T08:14:48;46.00;;;39.80;;
38994;SDS011;24769;18.712;99.000;2023-04-24T08:17:16;51.20;;;43.40;;
38994;SDS011;24769;18.712;99.000;2023-04-24T08:19:42;50.20;;;43.00;;
38994;SDS011;24769;18.712;99.000;2023-04-24T08:22:14;49.00;;;42.00;;
38994;SDS011;24769;18.712;99.000;2023-04-24T08:24:41;49.00;;;42.00;;
38994;SDS011;24769;18.712;99.000;2023-04-24T08:27:08;45.40;;;39.40;;
38994;SDS011;24769;18.712;99.000;2023-04-24T08:29:35;47.20;;;40.60;;
38994;SDS011;24769;18.712;99.000;2023-04-24T08:32:02;46.40;;;40.00;;
38994;SDS011;24769;18.712;99.000;2023-04-24T08:34:29;51.40;;;43.40;;
38994;SDS011;24769;18.712;99.000;2023-04-24T08:36:55;45.60;;;39.40;;
38994;SDS011;24769;18.712;99.000;2023-04-24T08:39:22;48.80;;;41.80;;
38994;SDS011;24769;18.712;99.000;2023-04-24T08:41:48;51.20;;;43.20;;
38994;SDS011;24769;18.712;99.000;2023-04-24T08:44:16;50.00;;;42.80;;
38994;SDS011;24769;18.712;99.000;2023-04-24T08:46:43;51.60;;;44.00;;
38994;SDS011;24769;18.712;99.000;2023-04-24T08:49:13;49.60;;;42.40;;
38994;SDS011;24769;18.712;99.000;2023-04-24T08:51:44;49.80;;;42.60;;
38994;SDS011;24769;18.712;99.000;2023-04-24T08:54:15;46.60;;;40.40;;
38994;SDS011;24769;18.712;99.000;2023-04-24T08:56:43;48.80;;;42.00;;
38994;SDS011;24769;18.712;99.000;2023-04-24T08:59:10;48.40;;;41.40;;
38994;SDS011;24769;18.712;99.000;2023-04-24T09:01:38;48.40;;;41.40;;
38994;SDS011;24769;18.712;99.000;2023-04-24T09:04:07;54.20;;;45.20;;
38994;SDS011;24769;18.712;99.000;2023-04-24T09:06:38;49.60;;;42.00;;
38994;SDS011;24769;18.712;99.000;2023-04-24T09:09:05;51.00;;;43.00;;
38994;SDS011;24769;18.712;99.000;2023-04-24T09:11:33;47.60;;;40.60;;
38994;SDS011;24769;18.712;99.000;2023-04-24T09:14:00;50.00;;;42.60;;
38994;SDS011;24769;18.712;99.000;2023-04-24T09:16:27;48.20;;;41.60;;
38994;SDS011;24769;18.712;99.000;2023-04-24T09:18:54;48.20;;;41.20;;
38994;SDS011;24769;18.712;99.000;2023-04-24T09:21:22;49.60;;;42.60;;
38994;SDS011;24769;18.712;99.000;2023-04-24T09:23:58;50.40;;;42.20;;
38994;SDS011;24769;18.712;99.000;2023-04-24T09:26:30;47.40;;;40.60;;
38994;SDS011;24769;18.712;99.000;2023-04-24T09:29:00;49.00;;;42.20;;
38994;SDS011;24769;18.712;99.000;2023-04-24T09:31:28;39.00;;;35.00;;
38994;SDS011;24769;18.712;99.000;2023-04-24T09:33:58;50.20;;;42.80;;
38994;SDS011;24769;18.712;99.000;2023-04-24T09:36:29;50.40;;;43.20;;
38994;SDS011;24769;18.712;99.000;2023-04-24T09:39:02;48.20;;;41.20;;
38994;SDS011;24769;18.712;99.000;2023-04-24T09:41:31;50.80;;;43.00;;
38994;SDS011;24769;18.712;99.000;2023-04-24T09:44:10;47.60;;;41.00;;
38994;SDS011;24769;18.712;99.000;2023-04-24T09:46:41;47.60;;;40.80;;
38994;SDS011;24769;18.712;99.000;2023-04-24T09:49:10;50.80;;;43.20;;
38994;SDS011;24769;18.712;99.000;2023-04-24T09:51:41;48.80;;;41.80;;
38994;SDS011;24769;18.712;99.000;2023-04-24T09:54:16;45.20;;;39.00;;
38994;SDS011;24769;18.712;99.000;2023-04-24T09:56:46;51.40;;;43.20;;
38994;SDS011;24769;18.712;99.000;2023-04-24T09:59:17;48.80;;;41.80;;
38994;SDS011;24769;18.712;99.000;2023-04-24T10:01:44;49.00;;;42.00;;
38994;SDS011;24769;18.712;99.000;2023-04-24T10:04:17;50.60;;;43.00;;
38994;SDS011;24769;18.712;99.000;2023-04-24T10:06:45;50.20;;;42.80;;
38994;SDS011;24769;18.712;99.000;2023-04-24T10:09:16;44.80;;;38.60;;
38994;SDS011;24769;18.712;99.000;2023-04-24T10:11:44;46.80;;;40.20;;
38994;SDS011;24769;18.712;99.000;2023-04-24T10:14:17;49.60;;;42.00;;
38994;SDS011;24769;18.712;99.000;2023-04-24T10:16:46;49.00;;;41.60;;
38994;SDS011;24769;18.712;99.000;2023-04-24T10:19:14;48.40;;;41.20;;
38994;SDS011;24769;18.712;99.000;2023-04-24T10:21:43;50.00;;;42.40;;
38994;SDS011;24769;18.712;99.000;2023-04-24T10:24:17;46.40;;;39.60;;
38994;SDS011;24769;18.712;99.000;2023-04-24T10:26:46;46.00;;;39.60;;
38994;SDS011;24769;18.712;99.000;2023-04-24T10:29:16;48.40;;;41.00;;
38994;SDS011;24769;18.712;99.000;2023-04-24T10:31:44;48.00;;;41.20;;
38994;SDS011;24769;18.712;99.000;2023-04-24T10:34:11;47.40;;;40.60;;
38994;SDS011;24769;18.712;99.000;2023-04-24T10:36:41;47.00;;;40.20;;
38994;SDS011;24769;18.712;99.000;2023-04-24T10:39:13;50.00;;;42.60;;
38994;SDS011;24769;18.712;99.000;2023-04-24T10:41:41;45.60;;;39.40;;
38994;SDS011;24769;18.712;99.000;2023-04-24T10:44:11;51.60;;;43.80;;
38994;SDS011;24769;18.712;99.000;2023-04-24T10:46:45;48.20;;;41.20;;
38994;SDS011;24769;18.712;99.000;2023-04-24T10:49:15;50.60;;;43.20;;
38994;SDS011;24769;18.712;99.000;2023-04-24T10:54:22;49.20;;;42.00;;
38994;SDS011;24769;18.712;99.000;2023-04-24T10:56:50;52.80;;;44.40;;
38994;SDS011;24769;18.712;99.000;2023-04-24T10:59:24;52.00;;;44.00;;
38994;SDS011;24769;18.712;99.000;2023-04-24T11:01:52;48.40;;;41.40;;
38994;SDS011;24769;18.712;99.000;2023-04-24T11:04:29;52.60;;;44.00;;
38994;SDS011;24769;18.712;99.000;2023-04-24T11:06:57;47.80;;;40.80;;
38994;SDS011;24769;18.712;99.000;2023-04-24T11:09:27;46.00;;;39.80;;
38994;SDS011;24769;18.712;99.000;2023-04-24T11:12:07;50.00;;;42.40;;
38994;SDS011;24769;18.712;99.000;2023-04-24T11:17:36;51.80;;;43.40;;
38994;SDS011;24769;18.712;99.000;2023-04-24T11:20:08;49.80;;;42.40;;
38994;SDS011;24769;18.712;99.000;2023-04-24T11:22:37;45.40;;;39.00;;
38994;SDS011;24769;18.712;99.000;2023-04-24T11:25:08;47.60;;;40.60;;
38994;SDS011;24769;18.712;99.000;2023-04-24T11:27:43;50.20;;;42.60;;
38994;SDS011;24769;18.712;99.000;2023-04-24T11:30:16;48.80;;;42.00;;
38994;SDS011;24769;18.712;99.000;2023-04-24T11:32:49;51.40;;;43.40;;
38994;SDS011;24769;18.712;99.000;2023-04-24T11:35:18;49.40;;;42.40;;
38994;SDS011;24769;18.712;99.000;2023-04-24T11:37:49;49.80;;;42.80;;
38994;SDS011;24769;18.712;99.000;2023-04-24T11:40:18;49.80;;;42.60;;
38994;SDS011;24769;18.712;99.000;2023-04-24T11:42:49;51.60;;;43.60;;
38994;SDS011;24769;18.712;99.000;2023-04-24T11:45:18;48.00;;;41.00;;
38994;SDS011;24769;18.712;99.000;2023-04-24T11:47:47;41.80;;;36.60;;
38994;SDS011;24769;18.712;99.000;2023-04-24T11:50:15;52.40;;;44.20;;
38994;SDS011;24769;18.712;99.000;2023-04-24T11:52:44;49.40;;;42.40;;
38994;SDS011;24769;18.712;99.000;2023-04-24T11:57:42;48.20;;;41.20;;
38994;SDS011;24769;18.712;99.000;2023-04-24T12:00:20;50.40;;;43.20;;
38994;SDS011;24769;18.712;99.000;2023-04-24T12:03:09;50.00;;;43.00;;
38994;SDS011;24769;18.712;99.000;2023-04-24T12:05:37;52.80;;;44.80;;
38994;SDS011;24769;18.712;99.000;2023-04-24T12:08:04;54.80;;;45.80;;
38994;SDS011;24769;18.712;99.000;2023-04-24T12:10:32;50.60;;;43.40;;
38994;SDS011;24769;18.712;99.000;2023-04-24T12:13:00;54.00;;;45.00;;
38994;SDS011;24769;18.712;99.000;2023-04-24T12:15:26;53.80;;;45.20;;
38994;SDS011;24769;18.712;99.000;2023-04-24T12:17:54;57.20;;;48.20;;
38994;SDS011;24769;18.712;99.000;2023-04-24T12:20:26;48.40;;;41.40;;
38994;SDS011;24769;18.712;99.000;2023-04-24T12:23:32;54.80;;;45.80;;
38994;SDS011;24769;18.712;99.000;2023-04-24T12:26:07;55.00;;;46.00;;
38994;SDS011;24769;18.712;99.000;2023-04-24T12:28:37;53.00;;;45.00;;
38994;SDS011;24769;18.712;99.000;2023-04-24T12:31:04;54.60;;;45.80;;
38994;SDS011;24769;18.712;99.000;2023-04-24T12:33:33;54.80;;;46.20;;
38994;SDS011;24769;18.712;99.000;2023-04-24T12:36:01;53.80;;;45.40;;
38994;SDS011;24769;18.712;99.000;2023-04-24T12:38:28;55.40;;;46.40;;
38994;SDS011;24769;18.712;99.000;2023-04-24T12:41:06;53.40;;;45.00;;
38994;SDS011;24769;18.712;99.000;2023-04-24T12:43:34;57.80;;;47.60;;
38994;SDS011;24769;18.712;99.000;2023-04-24T12:46:02;57.80;;;48.40;;
38994;SDS011;24769;18.712;99.000;2023-04-24T12:48:29;57.00;;;47.60;;
38994;SDS011;24769;18.712;99.000;2023-04-24T12:50:57;57.60;;;47.80;;
38994;SDS011;24769;18.712;99.000;2023-04-24T12:53:26;67.75;;;57.25;;
38994;SDS011;24769;18.712;99.000;2023-04-24T12:55:55;69.00;;;58.75;;
38994;SDS011;24769;18.712;99.000;2023-04-24T12:58:21;65.75;;;55.00;;
38994;SDS011;24769;18.712;99.000;2023-04-24T13:00:48;66.25;;;54.75;;
38994;SDS011;24769;18.712;99.000;2023-04-24T13:03:15;63.25;;;52.25;;
38994;SDS011;24769;18.712;99.000;2023-04-24T13:05:42;64.25;;;53.00;;
38994;SDS011;24769;18.712;99.000;2023-04-24T13:08:09;64.20;;;53.00;;
38994;SDS011;24769;18.712;99.000;2023-04-24T13:10:35;65.25;;;53.75;;
38994;SDS011;24769;18.712;99.000;2023-04-24T13:13:02;58.00;;;48.40;;
38994;SDS011;24769;18.712;99.000;2023-04-24T13:15:29;61.60;;;51.00;;
38994;SDS011;24769;18.712;99.000;2023-04-24T13:17:55;62.00;;;51.40;;
38994;SDS011;24769;18.712;99.000;2023-04-24T13:20:22;58.60;;;49.00;;
38994;SDS011;24769;18.712;99.000;2023-04-24T13:22:48;59.60;;;49.60;;
38994;SDS011;24769;18.712;99.000;2023-04-24T13:25:15;61.20;;;50.20;;
38994;SDS011;24769;18.712;99.000;2023-04-24T13:27:43;62.80;;;51.40;;
38994;SDS011;24769;18.712;99.000;2023-04-24T13:30:09;61.60;;;50.80;;
38994;SDS011;24769;18.712;99.000;2023-04-24T13:32:36;62.75;;;51.50;;
38994;SDS011;24769;18.712;99.000;2023-04-24T13:35:03;61.60;;;50.80;;
38994;SDS011;24769;18.712;99.000;2023-04-24T13:37:30;61.60;;;50.80;;
38994;SDS011;24769;18.712;99.000;2023-04-24T13:39:56;57.80;;;47.80;;
38994;SDS011;24769;18.712;99.000;2023-04-24T13:42:23;62.80;;;51.80;;
38994;SDS011;24769;18.712;99.000;2023-04-24T13:44:49;60.60;;;50.00;;
38994;SDS011;24769;18.712;99.000;2023-04-24T13:47:16;59.40;;;49.40;;
38994;SDS011;24769;18.712;99.000;2023-04-24T13:49:42;61.20;;;50.80;;
38994;SDS011;24769;18.712;99.000;2023-04-24T13:52:09;59.60;;;49.40;;
38994;SDS011;24769;18.712;99.000;2023-04-24T13:54:36;63.20;;;52.40;;
38994;SDS011;24769;18.712;99.000;2023-04-24T13:57:02;62.00;;;51.20;;
38994;SDS011;24769;18.712;99.000;2023-04-24T13:59:29;58.60;;;48.60;;
38994;SDS011;24769;18.712;99.000;2023-04-24T14:01:56;61.50;;;51.00;;
38994;SDS011;24769;18.712;99.000;2023-04-24T14:04:22;61.20;;;50.60;;
38994;SDS011;24769;18.712;99.000;2023-04-24T14:06:49;62.20;;;51.40;;
38994;SDS011;24769;18.712;99.000;2023-04-24T14:09:15;62.20;;;51.80;;
38994;SDS011;24769;18.712;99.000;2023-04-24T14:11:42;56.60;;;47.40;;
38994;SDS011;24769;18.712;99.000;2023-04-24T14:14:08;61.20;;;50.20;;
38994;SDS011;24769;18.712;99.000;2023-04-24T14:16:35;58.20;;;48.60;;
38994;SDS011;24769;18.712;99.000;2023-04-24T14:19:02;58.80;;;49.00;;
38994;SDS011;24769;18.712;99.000;2023-04-24T14:21:30;62.75;;;51.50;;